Time;durP1;ratioP1;P1;durP2;ratioP2;P2;SDS_P1;SDS_P2;PMS_P1;PMS_P2;Temp;Humidity;BMP_temperature;BMP_pressure;BME280_temperature;BME280_humidity;BME280_pressure;Samples;Min_cycle;Max_cycle;Signal;HPM_P1;HPM_P2
2022/10/05 00:02:20;;;;;;;3.95;1.67;;;15.50;87.50;;;;;;4919364;29;20048;-81
2022/10/05 00:04:55;;;;;;;3.58;1.50;;;15.60;87.60;;;;;;4924000;29;20036;-82
2022/10/05 00:07:23;;;;;;;;;;;15.60;87.60;;;;;;4935289;29;20043;-82
2022/10/05 00:09:58;;;;;;;4.38;2.13;;;15.50;87.50;;;;;;4935126;29;19923;-82
2022/10/05 00:12:28;;;;;;;5.70;1.67;;;15.50;87.50;;;;;;4919292;29;20126;-82
2022/10/05 00:14:59;;;;;;;4.35;1.95;;;15.50;87.50;;;;;;4919139;29;20058;-82
2022/10/05 00:17:29;;;;;;;5.63;1.80;;;15.50;87.50;;;;;;4934605;29;20058;-81
2022/10/05 00:19:56;;;;;;;3.65;1.70;;;15.50;87.50;;;;;;4935933;29;20043;-82
2022/10/05 00:22:32;;;;;;;4.03;1.88;;;15.50;87.60;;;;;;4918902;29;20081;-82
2022/10/05 00:25:02;;;;;;;3.00;1.60;;;15.50;87.70;;;;;;4934560;29;20039;-83
2022/10/05 00:27:36;;;;;;;4.47;1.55;;;15.50;87.80;;;;;;4934660;29;20043;-82
2022/10/05 00:30:17;;;;;;;6.03;1.90;;;15.50;87.80;;;;;;4922574;29;20051;-82
2022/10/05 00:32:53;;;;;;;3.63;1.48;;;15.50;87.80;;;;;;4918882;29;20047;-82
2022/10/05 00:35:28;;;;;;;4.15;1.63;;;15.40;87.80;;;;;;4934480;29;20110;-82
2022/10/05 00:37:55;;;;;;;4.25;1.67;;;15.40;87.90;;;;;;4934435;29;20095;-83
2022/10/05 00:40:49;;;;;;;5.07;2.08;;;15.40;87.90;;;;;;4918956;29;20504;-84
2022/10/05 00:43:33;;;;;;;3.35;1.88;;;15.40;87.80;;;;;;4934636;29;20043;-84
2022/10/05 00:46:26;;;;;;;3.60;1.90;;;15.40;88.00;;;;;;4934411;29;20530;-84
2022/10/05 00:49:30;;;;;;;4.65;1.85;;;15.40;88.10;;;;;;4924282;29;20043;-84
2022/10/05 00:52:11;;;;;;;4.88;1.80;;;15.40;88.00;;;;;;4919337;29;20051;-83
2022/10/05 00:54:49;;;;;;;4.28;1.52;;;15.40;88.10;;;;;;4934329;29;20074;-84
2022/10/05 00:57:19;;;;;;;4.07;1.73;;;15.40;88.10;;;;;;4934653;29;20408;-84
2022/10/05 01:00:04;;;;;;;2.22;1.15;;;15.40;88.10;;;;;;4936972;29;20404;-83
2022/10/05 01:02:58;;;;;;;4.50;1.88;;;15.40;88.10;;;;;;4937997;29;20043;-83
2022/10/05 01:05:47;;;;;;;2.85;1.33;;;15.40;88.20;;;;;;4930993;29;20056;-84
2022/10/05 01:08:51;;;;;;;3.00;1.55;;;15.40;88.20;;;;;;4942914;29;20045;-83
2022/10/05 01:11:28;;;;;;;3.22;1.40;;;15.40;88.30;;;;;;4940830;29;20047;-82
2022/10/05 01:13:55;;;;;;;4.82;1.48;;;15.40;88.50;;;;;;4938081;29;20490;-83
2022/10/05 01:16:34;;;;;;;5.05;2.17;;;15.40;88.50;;;;;;4937851;29;20058;-83
2022/10/05 01:19:30;;;;;;;5.97;2.17;;;15.40;88.50;;;;;;4939031;29;20055;-83
2022/10/05 01:22:09;;;;;;;4.80;1.60;;;15.40;88.30;;;;;;4937590;29;20055;-83
2022/10/05 01:25:14;;;;;;;4.10;1.75;;;15.40;88.40;;;;;;4937770;29;20044;-83
2022/10/05 01:28:05;;;;;;;5.55;2.25;;;15.40;88.30;;;;;;4937481;29;20135;-84
2022/10/05 01:30:54;;;;;;;4.10;2.00;;;15.40;88.40;;;;;;4937325;29;20179;-84
2022/10/05 01:33:35;;;;;;;3.63;2.08;;;15.40;88.40;;;;;;4937512;29;20130;-83
2022/10/05 01:36:05;;;;;;;2.97;1.42;;;15.40;88.50;;;;;;4937885;29;20050;-83
2022/10/05 01:39:21;;;;;;;3.70;1.90;;;15.30;88.50;;;;;;4937630;29;20047;-84
2022/10/05 01:42:10;;;;;;;3.67;1.70;;;15.30;88.50;;;;;;4937200;29;20499;-83
2022/10/05 01:44:53;;;;;;;3.83;2.05;;;15.30;88.60;;;;;;4937781;29;20047;-83
2022/10/05 01:47:39;;;;;;;3.45;2.10;;;15.30;88.70;;;;;;4937320;29;20052;-82
2022/10/05 01:50:12;;;;;;;;;;;15.30;88.60;;;;;;4937505;29;20040;-84
2022/10/05 01:53:11;;;;;;;5.25;2.22;;;15.30;88.80;;;;;;4936853;29;20359;-83
2022/10/05 01:55:55;;;;;;;6.57;2.15;;;15.30;88.80;;;;;;4950926;29;20143;-83
2022/10/05 01:58:42;;;;;;;3.72;2.13;;;15.30;88.80;;;;;;4937368;29;20047;-83
2022/10/05 02:02:06;;;;;;;5.10;2.08;;;15.30;88.80;;;;;;4927550;29;20059;-84
2022/10/05 02:04:42;;;;;;;3.88;2.13;;;15.30;88.80;;;;;;4937227;29;20048;-83
2022/10/05 02:07:44;;;;;;;4.18;2.25;;;15.20;88.90;;;;;;4938358;29;20047;-83
2022/10/05 02:10:30;;;;;;;4.25;2.00;;;15.30;89.00;;;;;;4936250;29;20123;-83
2022/10/05 02:13:32;;;;;;;4.90;2.10;;;15.20;89.10;;;;;;4938938;29;20058;-83
2022/10/05 02:16:06;;;;;;;5.93;2.42;;;15.10;89.30;;;;;;4921263;29;20119;-83
2022/10/05 02:18:47;;;;;;;3.85;2.42;;;15.00;89.50;;;;;;4911684;29;20048;-82
2022/10/05 02:21:20;;;;;;;5.80;2.60;;;15.00;89.60;;;;;;4920152;29;20048;-82
2022/10/05 02:23:49;;;;;;;;;;;15.00;89.70;;;;;;4937199;29;20052;-82
2022/10/05 02:26:18;;;;;;;3.63;1.98;;;15.00;89.80;;;;;;4936719;29;19926;-84
2022/10/05 02:29:08;;;;;;;5.88;2.10;;;14.90;89.90;;;;;;4920873;29;20131;-83
2022/10/05 02:31:44;;;;;;;4.32;2.35;;;14.90;89.90;;;;;;4929951;29;20055;-83
2022/10/05 02:34:27;;;;;;;3.70;2.30;;;14.90;90.00;;;;;;4936523;29;20460;-84
2022/10/05 02:37:17;;;;;;;4.57;2.60;;;14.90;90.00;;;;;;4910292;29;20134;-84
2022/10/05 02:39:55;;;;;;;5.15;2.55;;;14.90;90.00;;;;;;4921151;29;20138;-83
2022/10/05 02:42:42;;;;;;;5.60;2.88;;;14.90;90.10;;;;;;4935947;29;20559;-83
2022/10/05 02:45:25;;;;;;;3.28;1.95;;;14.80;90.10;;;;;;4936095;29;20404;-83
2022/10/05 02:48:23;;;;;;;4.88;2.55;;;14.80;90.10;;;;;;4936150;29;20061;-83
2022/10/05 02:51:24;;;;;;;8.43;4.57;;;14.80;90.20;;;;;;4933043;29;20059;-83
2022/10/05 02:54:10;;;;;;;5.63;3.50;;;14.80;90.20;;;;;;4938820;29;20051;-82
2022/10/05 02:56:50;;;;;;;5.70;3.20;;;14.70;90.20;;;;;;4920252;29;20511;-82
2022/10/05 03:00:07;;;;;;;4.68;3.03;;;14.70;90.20;;;;;;4936076;29;20087;-82
2022/10/05 03:03:00;;;;;;;7.03;3.90;;;14.70;90.20;;;;;;4924854;29;20460;-82
2022/10/05 03:05:56;;;;;;;6.70;3.47;;;14.70;90.30;;;;;;4935829;29;20052;-81
2022/10/05 03:08:32;;;;;;;7.38;3.75;;;14.70;90.30;;;;;;4920013;29;20063;-83
2022/10/05 03:11:30;;;;;;;4.65;2.83;;;14.70;90.30;;;;;;4920094;29;20075;-82
2022/10/05 03:14:55;;;;;;;4.60;2.70;;;14.70;90.30;;;;;;4935773;29;20047;-82
2022/10/05 03:17:29;;;;;;;5.63;3.70;;;14.70;90.30;;;;;;4896023;29;20062;-82
2022/10/05 03:20:28;;;;;;;8.15;3.60;;;14.60;90.30;;;;;;4907971;29;20055;-82
2022/10/05 03:23:07;;;;;;;7.13;3.97;;;14.70;90.30;;;;;;4930437;29;20135;-82
2022/10/05 03:25:55;;;;;;;6.00;3.10;;;14.70;90.30;;;;;;4943449;29;20050;-82
2022/10/05 03:28:42;;;;;;;4.90;2.85;;;14.80;90.20;;;;;;4918986;29;20045;-83
2022/10/05 03:31:17;;;;;;;6.40;2.88;;;14.80;90.20;;;;;;4935354;29;20518;-82
2022/10/05 03:34:39;;;;;;;5.53;3.03;;;14.80;90.20;;;;;;4924561;29;20063;-81
2022/10/05 03:37:21;;;;;;;5.80;3.28;;;14.80;90.20;;;;;;4868585;29;20042;-83
2022/10/05 03:40:26;;;;;;;6.68;2.70;;;14.80;90.20;;;;;;4861281;29;20086;-82
2022/10/05 03:43:15;;;;;;;7.35;3.10;;;14.90;90.20;;;;;;4937984;29;20055;-81
2022/10/05 03:45:56;;;;;;;5.72;2.78;;;14.90;90.20;;;;;;4940948;29;20129;-82
2022/10/05 03:48:35;;;;;;;7.00;2.83;;;14.80;90.20;;;;;;4935134;29;20484;-82
2022/10/05 03:51:25;;;;;;;6.28;2.90;;;14.90;90.30;;;;;;4919537;29;20515;-83
2022/10/05 03:54:10;;;;;;;4.20;2.25;;;14.90;90.30;;;;;;4919543;29;20478;-82
2022/10/05 03:56:53;;;;;;;;;;;14.90;90.20;;;;;;4903878;29;20051;-81
2022/10/05 03:59:29;;;;;;;4.70;2.20;;;14.90;90.30;;;;;;4918983;29;19974;-82
2022/10/05 04:02:05;;;;;;;6.03;3.05;;;14.90;90.30;;;;;;4919186;29;20052;-82
2022/10/05 04:04:47;;;;;;;5.45;3.38;;;14.90;90.30;;;;;;4903684;29;20506;-82
2022/10/05 04:07:25;;;;;;;5.68;3.42;;;14.90;90.30;;;;;;4919298;29;20040;-81
2022/10/05 04:09:53;;;;;;;5.28;3.58;;;15.00;90.20;;;;;;4919362;29;20075;-82
2022/10/05 04:12:33;;;;;;;5.40;3.53;;;15.00;90.30;;;;;;4919428;29;20047;-81
2022/10/05 04:15:23;;;;;;;6.63;2.95;;;15.00;90.20;;;;;;4919137;29;20052;-82
2022/10/05 04:17:58;;;;;;;5.57;3.45;;;15.00;90.20;;;;;;4918739;29;20047;-82
2022/10/05 04:20:43;;;;;;;6.13;3.40;;;15.00;90.20;;;;;;4903750;29;20043;-82
2022/10/05 04:23:35;;;;;;;6.43;3.70;;;15.00;90.20;;;;;;4918923;29;20043;-81
2022/10/05 04:26:14;;;;;;;5.22;3.17;;;15.00;90.10;;;;;;4918584;29;20151;-81
2022/10/05 04:29:06;;;;;;;5.10;2.70;;;15.00;90.20;;;;;;4919002;29;20059;-81
2022/10/05 04:31:59;;;;;;;5.07;2.85;;;15.00;90.40;;;;;;4903280;29;20111;-81
2022/10/05 04:34:58;;;;;;;4.60;2.35;;;15.10;90.20;;;;;;4902603;29;20079;-82
2022/10/05 04:37:48;;;;;;;4.65;2.60;;;15.10;90.20;;;;;;4918587;29;20444;-82
2022/10/05 04:41:07;;;;;;;4.47;2.33;;;15.10;90.20;;;;;;4909167;29;20051;-82
2022/10/05 04:44:05;;;;;;;5.30;3.38;;;15.10;90.20;;;;;;4872598;29;20094;-81
2022/10/05 04:46:41;;;;;;;4.43;2.53;;;15.10;90.20;;;;;;4903141;29;20071;-81
2022/10/05 04:49:29;;;;;;;4.32;2.63;;;15.10;90.20;;;;;;4903151;29;20071;-82
2022/10/05 04:52:19;;;;;;;6.68;3.15;;;15.10;90.20;;;;;;4918490;29;20504;-82
2022/10/05 04:55:26;;;;;;;4.53;2.25;;;15.10;90.20;;;;;;4928265;29;20044;-82
2022/10/05 04:58:01;;;;;;;5.15;2.08;;;15.10;90.20;;;;;;4899571;29;20048;-82
2022/10/05 05:00:45;;;;;;;4.63;2.60;;;15.00;90.20;;;;;;4913994;29;20071;-83
2022/10/05 05:03:18;;;;;;;;;;;15.10;90.30;;;;;;4903508;29;20118;-82
2022/10/05 05:06:03;;;;;;;5.85;2.83;;;15.00;90.30;;;;;;4918218;29;20366;-82
2022/10/05 05:09:11;;;;;;;5.30;2.78;;;15.00;90.30;;;;;;4904421;29;20393;-81
2022/10/05 05:11:58;;;;;;;5.75;3.03;;;15.00;90.20;;;;;;4923389;29;20043;-82
2022/10/05 05:14:59;;;;;;;4.85;2.70;;;15.00;90.20;;;;;;4918137;29;20139;-82
2022/10/05 05:17:45;;;;;;;5.38;2.85;;;15.10;90.20;;;;;;4918390;29;20577;-81
2022/10/05 05:20:53;;;;;;;5.95;2.90;;;15.00;90.20;;;;;;4918395;29;20448;-81
2022/10/05 05:23:47;;;;;;;7.22;3.40;;;15.10;90.20;;;;;;4931551;29;20122;-80
2022/10/05 05:26:46;;;;;;;6.82;3.25;;;15.00;90.20;;;;;;4902448;29;20482;-81
2022/10/05 05:29:43;;;;;;;5.85;2.83;;;15.00;90.20;;;;;;4902669;29;20521;-82
2022/10/05 05:32:48;;;;;;;5.63;3.17;;;15.10;90.20;;;;;;4908637;29;20044;-83
2022/10/05 05:35:38;;;;;;;4.22;2.25;;;15.00;90.20;;;;;;4905936;29;20492;-82
2022/10/05 05:38:33;;;;;;;5.30;2.63;;;15.10;90.20;;;;;;4902545;29;20067;-82
2022/10/05 05:41:09;;;;;;;5.05;2.97;;;15.10;90.20;;;;;;4918113;29;20054;-82
2022/10/05 05:43:52;;;;;;;4.97;2.78;;;15.00;90.20;;;;;;4889973;29;20048;-81
2022/10/05 05:46:36;;;;;;;4.53;2.38;;;15.00;90.20;;;;;;4904896;29;20039;-80
2022/10/05 05:50:01;;;;;;;5.70;3.30;;;15.10;90.20;;;;;;4921367;29;20039;-83
2022/10/05 05:53:41;;;;;;;5.38;2.67;;;15.10;90.50;;;;;;4921949;29;20047;-84
2022/10/05 05:56:16;;;;;;;6.55;3.30;;;15.10;90.20;;;;;;4842988;29;20444;-83
2022/10/05 05:58:53;;;;;;;5.78;3.40;;;15.00;90.20;;;;;;4920577;29;21146;-83
2022/10/05 06:01:33;;;;;;;5.65;3.10;;;15.00;90.20;;;;;;4937052;29;20066;-83
2022/10/05 06:04:21;;;;;;;5.47;3.20;;;15.00;90.20;;;;;;4919861;29;20047;-82
2022/10/05 06:07:05;;;;;;;5.38;2.80;;;15.00;90.20;;;;;;4922424;29;20048;-83
2022/10/05 06:09:39;;;;;;;4.55;2.28;;;15.00;90.20;;;;;;4921051;29;20102;-83
2022/10/05 06:12:26;;;;;;;5.75;3.38;;;15.00;90.20;;;;;;4936933;29;20036;-83
2022/10/05 06:15:23;;;;;;;5.80;3.38;;;15.00;90.20;;;;;;4918688;29;20039;-83
2022/10/05 06:18:03;;;;;;;5.07;2.72;;;15.00;90.20;;;;;;4934613;29;20078;-83
2022/10/05 06:20:37;;;;;;;4.93;2.88;;;15.00;90.20;;;;;;4952459;29;20103;-83
2022/10/05 06:23:19;;;;;;;4.50;2.88;;;15.00;90.20;;;;;;4936376;29;20042;-86
2022/10/05 06:26:19;;;;;;;5.38;3.05;;;15.00;90.20;;;;;;4921258;29;20453;-85
2022/10/05 06:28:59;;;;;;;6.10;2.60;;;15.00;90.20;;;;;;4870939;29;20493;-85
2022/10/05 06:31:45;;;;;;;3.83;2.10;;;15.10;90.20;;;;;;4936994;29;20039;-85
2022/10/05 06:34:39;;;;;;;3.60;2.15;;;15.10;90.20;;;;;;4936868;29;20078;-84
2022/10/05 06:37:21;;;;;;;4.07;1.85;;;15.10;90.10;;;;;;4941508;29;20147;-85
2022/10/05 06:40:04;;;;;;;3.13;1.35;;;15.10;90.20;;;;;;4920792;29;20078;-84
2022/10/05 06:42:48;;;;;;;3.92;2.00;;;15.10;90.20;;;;;;4921044;29;20054;-84
2022/10/05 06:46:18;;;;;;;4.25;1.90;;;15.10;90.20;;;;;;4925151;29;20085;-84
2022/10/05 06:49:19;;;;;;;5.00;2.17;;;15.10;90.10;;;;;;4855007;29;20444;-84
2022/10/05 06:52:33;;;;;;;4.15;1.92;;;15.10;90.10;;;;;;4927502;29;20087;-81
2022/10/05 06:55:22;;;;;;;4.70;1.90;;;15.10;90.10;;;;;;4920224;29;20052;-81
2022/10/05 06:58:07;;;;;;;5.30;2.13;;;15.10;90.10;;;;;;4923203;29;20058;-82
2022/10/05 07:00:48;;;;;;;4.82;2.47;;;15.10;90.10;;;;;;4936180;29;20051;-82
2022/10/05 07:03:48;;;;;;;3.80;2.08;;;15.10;90.10;;;;;;4935675;29;20062;-82
2022/10/05 07:06:32;;;;;;;4.38;2.03;;;15.10;90.10;;;;;;4922915;29;20131;-82
2022/10/05 07:09:18;;;;;;;6.82;2.47;;;15.20;90.10;;;;;;4935181;29;20040;-82
2022/10/05 07:11:55;;;;;;;4.13;1.92;;;15.20;90.10;;;;;;4935811;29;20054;-82
2022/10/05 07:14:49;;;;;;;5.80;2.30;;;15.20;90.00;;;;;;4935589;29;20043;-81
2022/10/05 07:17:45;;;;;;;4.85;2.28;;;15.20;90.00;;;;;;4935999;29;20051;-81
2022/10/05 07:20:21;;;;;;;4.40;2.00;;;15.30;89.90;;;;;;4929800;29;20052;-81
2022/10/05 07:22:57;;;;;;;4.38;2.13;;;15.30;89.90;;;;;;4935732;29;20084;-81
2022/10/05 07:25:41;;;;;;;5.40;2.30;;;15.30;89.80;;;;;;4935372;29;20047;-80
2022/10/05 07:28:15;;;;;;;5.53;2.42;;;15.40;89.80;;;;;;4935456;29;20127;-81
2022/10/05 07:31:32;;;;;;;5.72;2.10;;;15.40;89.70;;;;;;4935336;29;20047;-82
2022/10/05 07:34:16;;;;;;;4.53;2.15;;;15.40;89.60;;;;;;4873360;29;20050;-81
2022/10/05 07:40:16;;;;;;;4.15;2.10;;;15.40;89.50;;;;;;4935172;29;20150;-80
2022/10/05 07:43:17;;;;;;;4.20;2.35;;;15.50;89.50;;;;;;4935575;29;20044;-81
2022/10/05 07:46:06;;;;;;;3.55;1.67;;;15.50;89.50;;;;;;4926411;29;20044;-80
2022/10/05 07:48:55;;;;;;;3.65;1.80;;;15.50;89.50;;;;;;4935177;29;20036;-80
2022/10/05 07:51:40;;;;;;;3.08;1.52;;;15.60;89.40;;;;;;4934913;29;20139;-80
2022/10/05 07:54:24;;;;;;;3.17;1.52;;;15.60;89.30;;;;;;4919256;29;20047;-80
2022/10/05 07:57:10;;;;;;;5.63;1.88;;;15.60;89.20;;;;;;4919091;29;20067;-81
2022/10/05 08:00:12;;;;;;;4.32;1.67;;;15.70;89.20;;;;;;4923162;29;20059;-81
2022/10/05 08:03:06;;;;;;;5.53;2.60;;;15.70;89.10;;;;;;4930459;29;20500;-81
2022/10/05 08:05:45;;;;;;;4.75;1.80;;;15.70;89.10;;;;;;4934247;29;20087;-81
2022/10/05 08:08:34;;;;;;;4.45;2.03;;;15.70;89.00;;;;;;4891634;29;20043;-81
2022/10/05 08:11:14;;;;;;;4.22;2.30;;;15.70;88.90;;;;;;4904244;29;20051;-82
2022/10/05 08:13:58;;;;;;;3.38;1.77;;;15.70;88.90;;;;;;4903361;29;20062;-81
2022/10/05 08:16:29;;;;;;;4.70;2.00;;;15.70;88.80;;;;;;4918567;29;20508;-81
2022/10/05 08:19:24;;;;;;;4.90;2.20;;;15.70;88.80;;;;;;4918987;29;20122;-81
2022/10/05 08:21:59;;;;;;;3.85;1.67;;;15.80;88.70;;;;;;4900261;29;20139;-80
2022/10/05 08:24:47;;;;;;;3.85;1.65;;;15.80;88.80;;;;;;4914978;29;20066;-84
2022/10/05 08:27:25;;;;;;;3.47;1.42;;;15.90;88.70;;;;;;4918999;29;20484;-84
2022/10/05 08:30:00;;;;;;;2.72;1.13;;;15.90;89.20;;;;;;4919001;29;20039;-84
2022/10/05 08:32:37;;;;;;;3.25;1.30;;;16.00;88.40;;;;;;4903142;29;20424;-85
2022/10/05 08:35:10;;;;;;;2.53;1.13;;;16.10;88.20;;;;;;4918484;29;20130;-85
2022/10/05 08:37:41;;;;;;;2.55;0.93;;;16.20;88.00;;;;;;4902992;29;20504;-84
2022/10/05 08:40:17;;;;;;;2.00;1.10;;;16.20;87.80;;;;;;4918675;29;20043;-84
2022/10/05 08:43:16;;;;;;;3.38;1.08;;;16.30;87.70;;;;;;4903000;29;20083;-83
2022/10/05 08:46:24;;;;;;;3.33;1.20;;;16.30;87.50;;;;;;4908477;29;20144;-83
2022/10/05 08:49:15;;;;;;;2.00;1.20;;;16.40;87.40;;;;;;4891219;29;20055;-84
2022/10/05 08:52:01;;;;;;;3.20;1.45;;;16.50;87.10;;;;;;4906460;29;20055;-89
2022/10/05 08:54:34;;;;;;;2.10;1.13;;;16.60;87.00;;;;;;4919907;29;20496;-86
2022/10/05 08:57:10;;;;;;;2.95;1.08;;;16.70;86.70;;;;;;4935976;29;20048;-89
2022/10/05 09:00:07;;;;;;;2.88;0.90;;;16.80;86.60;;;;;;4935178;29;20155;-89
2022/10/05 09:02:59;;;;;;;4.20;1.20;;;16.90;86.40;;;;;;4920841;29;20050;-92
2022/10/05 09:05:35;;;;;;;3.20;1.23;;;17.00;86.10;;;;;;4921215;29;20044;-91
2022/10/05 09:08:23;;;;;;;2.97;1.20;;;17.00;86.10;;;;;;4919553;29;20036;-90
2022/10/05 09:11:11;;;;;;;3.85;1.13;;;17.10;86.00;;;;;;4920113;29;20047;-92
2022/10/05 09:13:50;;;;;;;2.60;1.25;;;17.20;85.90;;;;;;4919695;29;20052;-89
2022/10/05 09:16:57;;;;;;;2.05;0.98;;;17.30;85.80;;;;;;4935815;29;20088;-90
2022/10/05 09:20:09;;;;;;;2.30;1.00;;;17.30;85.40;;;;;;4871558;29;20078;-83
2022/10/05 09:23:01;;;;;;;2.15;1.10;;;17.40;85.50;;;;;;4908115;29;20036;-87
2022/10/05 09:26:04;;;;;;;2.97;1.40;;;17.50;85.00;;;;;;4938698;29;20055;-85
2022/10/05 09:28:47;;;;;;;2.55;1.00;;;17.50;84.90;;;;;;4923878;29;20075;-87
2022/10/05 09:35:58;;;;;;;2.47;1.20;;;17.70;84.60;;;;;;4935243;29;20155;-88
2022/10/05 09:47:33;;;;;;;4.50;1.48;;;17.90;84.20;;;;;;4919511;29;20050;-91
2022/10/05 09:50:25;;;;;;;3.42;1.30;;;17.90;83.80;;;;;;4861180;29;20501;-82
2022/10/05 09:52:55;;;;;;;3.95;1.33;;;18.00;83.90;;;;;;4879845;29;20045;-85
2022/10/05 09:55:30;;;;;;;2.22;0.95;;;18.00;83.90;;;;;;4882197;29;20145;-85
2022/10/05 09:58:07;;;;;;;3.47;1.60;;;18.10;83.80;;;;;;4874158;29;20109;-84
2022/10/05 10:01:04;;;;;;;3.88;1.30;;;18.10;83.50;;;;;;4876546;29;20463;-85
2022/10/05 10:04:06;;;;;;;3.53;1.58;;;18.20;83.10;;;;;;4879511;29;20085;-85
2022/10/05 10:07:12;;;;;;;3.67;1.63;;;18.30;83.00;;;;;;4863276;29;20101;-81
2022/10/05 10:09:57;;;;;;;1.55;0.98;;;18.30;82.90;;;;;;4837192;29;20053;-84
2022/10/05 10:12:52;;;;;;;2.42;1.02;;;18.30;82.90;;;;;;4881570;29;20580;-88
2022/10/05 10:15:47;;;;;;;2.42;1.23;;;18.40;82.80;;;;;;4882537;29;20048;-80
2022/10/05 10:18:35;;;;;;;2.13;1.02;;;18.50;82.60;;;;;;4879267;29;20045;-85
2022/10/05 10:21:33;;;;;;;4.18;1.30;;;18.60;82.30;;;;;;4906291;29;20052;-87
2022/10/05 10:24:03;;;;;;;2.67;1.50;;;18.70;82.00;;;;;;4937495;29;20071;-89
2022/10/05 10:26:48;;;;;;;2.13;1.10;;;18.70;81.90;;;;;;4936863;29;20051;-82
2022/10/05 10:29:35;;;;;;;3.05;1.20;;;18.80;81.70;;;;;;4936883;29;20220;-83
2022/10/05 10:32:37;;;;;;;2.45;0.93;;;18.90;81.40;;;;;;4921708;29;20056;-83
2022/10/05 10:35:18;;;;;;;2.35;1.10;;;19.00;81.50;;;;;;4936297;29;20055;-85
2022/10/05 10:37:57;;;;;;;2.53;1.13;;;18.90;80.80;;;;;;4952729;29;20079;-84
2022/10/05 10:40:52;;;;;;;3.45;1.35;;;18.90;80.70;;;;;;4940636;29;20125;-84
2022/10/05 10:43:57;;;;;;;3.78;1.45;;;18.90;80.60;;;;;;4936749;29;20047;-85
2022/10/05 10:46:52;;;;;;;2.80;1.30;;;19.00;80.50;;;;;;4921911;29;20052;-84
2022/10/05 10:49:31;;;;;;;2.70;1.00;;;19.00;80.60;;;;;;4921892;29;20090;-88
2022/10/05 10:52:23;;;;;;;2.47;1.27;;;19.00;80.20;;;;;;4940711;29;20055;-89
2022/10/05 10:55:30;;;;;;;2.55;1.15;;;19.00;80.00;;;;;;4939315;29;20138;-84
2022/10/05 10:58:41;;;;;;;3.25;1.20;;;19.00;80.10;;;;;;4925109;29;20035;-84
2022/10/05 11:05:11;;;;;;;2.38;0.90;;;19.10;79.90;;;;;;4933987;29;20056;-81
2022/10/05 11:08:28;;;;;;;2.03;0.95;;;19.20;80.00;;;;;;4905340;29;20047;-82
2022/10/05 11:15:10;;;;;;;1.65;0.68;;;19.20;80.00;;;;;;4935570;29;20043;-81
2022/10/05 11:18:00;;;;;;;3.67;1.10;;;19.20;80.20;;;;;;4935531;29;20056;-82
2022/10/05 11:21:08;;;;;;;2.35;0.73;;;19.20;79.80;;;;;;4935648;29;20227;-83
2022/10/05 11:23:57;;;;;;;2.20;1.00;;;19.30;79.80;;;;;;4917022;29;20049;-82
2022/10/05 11:27:17;;;;;;;3.40;1.20;;;19.30;79.70;;;;;;4921139;29;20052;-84
2022/10/05 11:29:44;;;;;;;1.75;0.77;;;19.30;79.10;;;;;;4877739;29;20088;-82
2022/10/05 11:32:48;;;;;;;2.55;1.13;;;19.30;79.20;;;;;;4912464;29;20103;-85
2022/10/05 11:35:29;;;;;;;3.78;0.80;;;19.40;79.00;;;;;;4933896;29;20559;-82
2022/10/05 11:38:09;;;;;;;3.83;0.90;;;19.40;78.80;;;;;;4933058;29;20059;-86
2022/10/05 11:40:50;;;;;;;2.28;1.38;;;19.50;78.80;;;;;;4935120;29;20504;-83
2022/10/05 11:43:41;;;;;;;1.98;0.98;;;19.50;78.10;;;;;;4932465;29;20559;-83
2022/10/05 11:46:10;;;;;;;;;;;19.50;78.40;;;;;;4935425;29;20091;-84
2022/10/05 11:49:06;;;;;;;2.60;0.57;;;19.60;78.70;;;;;;4934196;29;19923;-83
2022/10/05 11:55:38;;;;;;;1.88;0.85;;;19.70;78.30;;;;;;4844572;29;20062;-85
2022/10/05 11:58:18;;;;;;;2.45;0.73;;;19.70;78.00;;;;;;4843111;29;20521;-82
2022/10/05 12:01:11;;;;;;;1.90;0.93;;;19.70;78.10;;;;;;4880705;29;20059;-83
2022/10/05 12:03:45;;;;;;;1.73;0.80;;;19.70;77.70;;;;;;4900787;29;20492;-80
2022/10/05 12:07:01;;;;;;;1.27;0.60;;;19.70;77.90;;;;;;4895881;29;20048;-85
2022/10/05 12:13:12;;;;;;;3.25;0.80;;;19.70;77.80;;;;;;4903670;29;20055;-83
2022/10/05 12:16:10;;;;;;;2.25;0.77;;;19.80;77.90;;;;;;4883271;29;20052;-84
2022/10/05 12:19:12;;;;;;;1.40;0.70;;;19.90;77.80;;;;;;4909465;29;20104;-83
2022/10/05 12:22:16;;;;;;;1.60;0.80;;;20.00;77.70;;;;;;4890762;29;20067;-82
2022/10/05 12:25:31;;;;;;;1.85;0.50;;;20.00;77.50;;;;;;4902734;29;20135;-87
2022/10/05 12:28:14;;;;;;;1.83;0.80;;;20.10;77.40;;;;;;4911206;29;20049;-86
2022/10/05 12:30:56;;;;;;;1.67;0.70;;;20.20;77.00;;;;;;4906600;29;20051;-83
2022/10/05 12:33:58;;;;;;;2.42;0.90;;;20.20;77.00;;;;;;4881989;29;20048;-84
2022/10/05 12:36:36;;;;;;;2.53;0.98;;;20.30;77.00;;;;;;4908987;29;20044;-82
2022/10/05 12:39:32;;;;;;;1.80;0.60;;;20.40;76.50;;;;;;4892848;29;20148;-84
2022/10/05 12:42:49;;;;;;;2.85;1.00;;;20.40;76.60;;;;;;4894469;29;20083;-84
2022/10/05 12:46:03;;;;;;;2.58;1.10;;;20.40;75.50;;;;;;4872421;29;20504;-83
2022/10/05 12:49:05;;;;;;;2.65;0.80;;;20.40;76.10;;;;;;4896066;29;20041;-81
2022/10/05 12:52:00;;;;;;;2.55;0.68;;;20.40;76.30;;;;;;4897616;29;20147;-83
2022/10/05 12:54:58;;;;;;;1.70;0.70;;;20.40;76.20;;;;;;4869178;29;20580;-82
2022/10/05 12:57:54;;;;;;;2.85;0.63;;;20.50;76.00;;;;;;4916440;29;20103;-81
2022/10/05 13:00:22;;;;;;;2.15;0.80;;;20.50;76.10;;;;;;4916580;29;20055;-83
2022/10/05 13:03:11;;;;;;;1.77;0.50;;;20.60;76.30;;;;;;4909102;29;20139;-84
2022/10/05 13:09:47;;;;;;;1.75;0.57;;;20.70;76.00;;;;;;4848746;29;20064;-82
2022/10/05 13:12:36;;;;;;;1.25;0.52;;;20.70;76.30;;;;;;4838415;29;20058;-82
2022/10/05 13:15:52;;;;;;;2.22;0.57;;;20.80;76.20;;;;;;4925796;29;20070;-83
2022/10/05 13:18:44;;;;;;;3.47;1.13;;;20.70;75.50;;;;;;4891335;29;20044;-83
2022/10/05 13:25:35;;;;;;;1.25;0.60;;;20.60;75.10;;;;;;4901202;29;20067;-88
2022/10/05 13:28:32;;;;;;;1.63;0.70;;;20.70;75.40;;;;;;4935810;29;20093;-89
2022/10/05 13:31:44;;;;;;;1.30;0.57;;;20.70;75.50;;;;;;4923063;29;20032;-89
2022/10/05 13:34:35;;;;;;;2.03;0.63;;;20.70;75.60;;;;;;4895754;29;20135;-84
2022/10/05 13:37:06;;;;;;;2.58;0.60;;;20.70;75.90;;;;;;4881778;29;20445;-83
2022/10/05 13:40:03;;;;;;;0.95;0.50;;;20.70;75.90;;;;;;4915898;29;20052;-82
2022/10/05 13:42:40;;;;;;;1.17;0.50;;;20.80;76.00;;;;;;4909991;29;20056;-83
2022/10/05 13:45:53;;;;;;;2.35;0.70;;;20.80;76.10;;;;;;4902836;29;20099;-88
2022/10/05 13:49:00;;;;;;;1.58;0.40;;;20.80;75.60;;;;;;4910839;29;20056;-83
2022/10/05 13:51:38;;;;;;;0.98;0.50;;;20.80;75.80;;;;;;4920987;29;20096;-84
2022/10/05 13:54:20;;;;;;;1.75;0.57;;;20.90;75.60;;;;;;4921432;29;20054;-85
2022/10/05 13:57:31;;;;;;;2.60;0.57;;;20.90;75.50;;;;;;4900868;29;20416;-87
2022/10/05 14:00:22;;;;;;;1.30;0.47;;;21.00;75.80;;;;;;4916566;29;20106;-83
2022/10/05 14:02:58;;;;;;;2.13;0.80;;;21.00;75.50;;;;;;4917405;29;20047;-83
2022/10/05 14:05:30;;;;;;;1.40;0.50;;;21.00;75.20;;;;;;4904638;29;20055;-82
2022/10/05 14:08:03;;;;;;;2.38;0.60;;;21.00;75.40;;;;;;4933304;29;20119;-82
2022/10/05 14:10:40;;;;;;;2.00;0.80;;;21.00;75.50;;;;;;4904980;29;20048;-81
2022/10/05 14:13:22;;;;;;;2.10;0.80;;;21.00;75.50;;;;;;4912205;29;20054;-91
2022/10/05 14:16:16;;;;;;;1.10;0.40;;;21.00;75.20;;;;;;4921005;29;20079;-84
2022/10/05 14:19:05;;;;;;;7.00;1.05;;;20.90;75.20;;;;;;4920616;29;20056;-83
2022/10/05 14:21:46;;;;;;;1.90;0.70;;;20.90;75.50;;;;;;4907473;29;20103;-85
2022/10/05 14:24:26;;;;;;;0.98;0.57;;;20.90;75.10;;;;;;4921142;29;20047;-83
2022/10/05 14:27:46;;;;;;;1.85;0.90;;;20.90;74.50;;;;;;4907431;29;20067;-86
2022/10/05 14:30:54;;;;;;;1.73;0.88;;;20.90;73.50;;;;;;4918193;29;20489;-86
2022/10/05 14:33:31;;;;;;;2.80;0.73;;;20.90;73.30;;;;;;4920693;29;20142;-80
2022/10/05 14:35:59;;;;;;;3.35;0.60;;;20.80;73.30;;;;;;4920336;29;20143;-82
2022/10/05 14:38:43;;;;;;;1.88;0.80;;;20.80;73.60;;;;;;4919962;29;20048;-83
2022/10/05 14:41:30;;;;;;;2.70;0.60;;;20.80;73.70;;;;;;4919945;29;20052;-82
2022/10/05 14:44:26;;;;;;;1.75;0.65;;;20.80;73.70;;;;;;4909410;29;20080;-83
2022/10/05 14:47:00;;;;;;;1.92;0.57;;;20.80;74.00;;;;;;4920267;29;20134;-82
2022/10/05 14:49:36;;;;;;;1.40;0.60;;;20.70;74.10;;;;;;4936956;29;20044;-84
2022/10/05 14:52:33;;;;;;;0.93;0.45;;;20.70;74.30;;;;;;4919991;29;20055;-83
2022/10/05 14:55:23;;;;;;;2.97;0.50;;;20.80;74.50;;;;;;4920084;29;20131;-83
2022/10/05 14:58:28;;;;;;;1.58;0.55;;;20.70;74.30;;;;;;4923512;29;20052;-83
2022/10/05 15:01:22;;;;;;;1.50;0.60;;;20.70;74.40;;;;;;4920073;29;20039;-83
2022/10/05 15:03:59;;;;;;;1.63;0.60;;;20.70;74.10;;;;;;4904355;29;20151;-87
2022/10/05 15:06:59;;;;;;;1.15;0.60;;;20.60;74.00;;;;;;4905099;29;20050;-89
2022/10/05 15:13:15;;;;;;;2.15;0.80;;;20.50;73.50;;;;;;4906650;29;20062;-84
2022/10/05 15:16:04;;;;;;;2.90;0.82;;;20.30;73.80;;;;;;4906028;29;20436;-85
2022/10/05 15:18:40;;;;;;;2.22;0.75;;;20.20;74.10;;;;;;4919874;29;20146;-85
2022/10/05 15:21:22;;;;;;;3.53;1.02;;;20.10;74.40;;;;;;4919549;29;20416;-85